createdAt,value
2017-07-27T00:00:40.342Z,99.99
2017-07-27T00:01:40.334Z,99.99
2017-07-27T00:02:40.008Z,99.99
2017-07-27T00:03:40.320Z,99.99
2017-07-27T00:04:40.329Z,99.99
2017-07-27T00:05:40.311Z,99.99
2017-07-27T00:06:40.335Z,99.99
2017-07-27T00:07:40.301Z,99.99
2017-07-27T00:08:40.299Z,99.99
2017-07-27T00:09:39.963Z,99.99
2017-07-27T00:10:39.956Z,99.99
2017-07-27T00:11:40.283Z,99.99
2017-07-27T00:12:40.277Z,99.99
2017-07-27T00:13:40.264Z,99.99
2017-07-27T00:14:39.934Z,99.99
2017-07-27T00:15:40.249Z,99.99
2017-07-27T00:16:40.282Z,99.99
2017-07-27T00:17:40.234Z,99.99
2017-07-27T00:18:40.244Z,99.99
2017-07-27T00:19:40.240Z,99.99
2017-07-27T00:20:40.236Z,99.99
2017-07-27T00:21:40.211Z,99.99
2017-07-27T00:22:40.210Z,99.99
2017-07-27T00:23:40.205Z,99.99
2017-07-27T00:24:40.191Z,99.99
2017-07-27T00:25:40.202Z,99.99
2017-07-27T00:26:40.214Z,99.99
2017-07-27T00:27:40.174Z,99.99
2017-07-27T00:28:40.167Z,99.99
2017-07-27T00:29:40.161Z,99.99
2017-07-27T00:30:40.163Z,99.99
2017-07-27T00:31:39.852Z,99.99
2017-07-27T00:32:39.822Z,99.99
2017-07-27T00:33:39.815Z,99.99
2017-07-27T00:34:39.811Z,99.99
2017-07-27T00:35:40.125Z,99.99
2017-07-27T00:36:40.118Z,99.99
2017-07-27T00:37:40.112Z,99.99
2017-07-27T00:38:40.106Z,99.99
2017-07-27T00:39:39.793Z,99.99
2017-07-27T00:40:40.103Z,99.99
2017-07-27T00:41:40.087Z,99.99
2017-07-27T00:42:40.109Z,99.99
2017-07-27T00:43:39.756Z,99.99
2017-07-27T00:44:39.748Z,99.99
2017-07-27T00:45:39.765Z,99.99
2017-07-27T00:46:39.737Z,99.99
2017-07-27T00:47:40.050Z,99.99
2017-07-27T00:48:40.068Z,99.99
2017-07-27T00:49:39.718Z,99.99
2017-07-27T00:50:40.046Z,99.99
2017-07-27T00:51:40.027Z,99.99
2017-07-27T00:52:40.041Z,99.99
2017-07-27T00:53:40.026Z,99.99
2017-07-27T00:54:40.032Z,99.99
2017-07-27T00:55:40.018Z,99.99
2017-07-27T00:56:39.997Z,99.99
2017-07-27T00:57:39.703Z,99.99
2017-07-27T00:58:39.666Z,99.99
2017-07-27T00:59:40.114Z,99.99
2017-07-27T01:00:39.663Z,99.99
2017-07-27T01:01:39.980Z,99.99
2017-07-27T01:02:39.965Z,99.99
2017-07-27T01:03:39.635Z,99.99
2017-07-27T01:04:40.304Z,99.99
2017-07-27T01:05:39.944Z,99.99
2017-07-27T01:06:39.959Z,99.99
2017-07-27T01:07:39.933Z,99.99
2017-07-27T01:08:39.924Z,99.99
2017-07-27T01:09:39.922Z,99.99
2017-07-27T01:10:39.916Z,99.99
2017-07-27T01:11:39.610Z,99.99
2017-07-27T01:12:39.901Z,99.99
2017-07-27T01:13:39.898Z,99.99
2017-07-27T01:14:39.905Z,99.99
2017-07-27T01:15:39.563Z,99.99
2017-07-27T01:16:39.876Z,99.99
2017-07-27T01:17:39.869Z,99.99
2017-07-27T01:18:39.865Z,99.99
2017-07-27T01:19:39.856Z,99.99
2017-07-27T01:20:39.862Z,99.99
2017-07-27T01:21:39.852Z,99.99
2017-07-27T01:22:39.838Z,99.99
2017-07-27T01:23:39.850Z,99.99
2017-07-27T01:24:39.825Z,99.99
2017-07-27T01:25:39.822Z,99.99
2017-07-27T01:26:39.495Z,99.99
2017-07-27T01:27:39.827Z,99.99
2017-07-27T01:28:39.805Z,99.99
2017-07-27T01:29:39.806Z,99.99
2017-07-27T01:30:39.476Z,99.99
2017-07-27T01:31:39.784Z,99.99
2017-07-27T01:32:39.787Z,99.99
2017-07-27T01:33:39.777Z,99.99
2017-07-27T01:34:39.445Z,99.99
2017-07-27T01:35:39.440Z,99.99
2017-07-27T01:36:39.434Z,99.99
2017-07-27T01:37:39.434Z,99.99
2017-07-27T01:38:39.426Z,99.99
2017-07-27T01:39:39.755Z,99.99
2017-07-27T01:40:39.427Z,99.99
2017-07-27T01:41:39.728Z,99.99
2017-07-27T01:42:39.399Z,99.99
2017-07-27T01:43:39.716Z,99.99
2017-07-27T01:44:39.386Z,99.99
2017-07-27T01:45:39.379Z,99.99
2017-07-27T01:46:39.699Z,99.99
2017-07-27T01:47:39.712Z,99.99
2017-07-27T01:48:39.389Z,99.99
2017-07-27T01:49:39.356Z,99.99
2017-07-27T01:50:39.355Z,99.99
2017-07-27T01:51:39.342Z,99.99
2017-07-27T01:52:39.689Z,99.99
2017-07-27T01:53:39.332Z,99.99
2017-07-27T01:54:39.644Z,99.99
2017-07-27T01:55:39.641Z,99.99
2017-07-27T01:56:39.315Z,99.99
2017-07-27T01:57:39.306Z,99.99
2017-07-27T01:58:39.310Z,99.99
2017-07-27T01:59:39.306Z,99.99
2017-07-27T02:00:39.625Z,99.99
2017-07-27T02:01:39.606Z,99.99
2017-07-27T02:02:39.604Z,99.99
2017-07-27T02:03:39.591Z,99.99
2017-07-27T02:04:39.589Z,99.99
2017-07-27T02:05:39.589Z,99.99
2017-07-27T02:06:39.572Z,99.99
2017-07-27T02:07:39.570Z,99.99
2017-07-27T02:08:39.242Z,99.99
2017-07-27T02:09:39.247Z,99.99
2017-07-27T02:10:39.550Z,99.99
2017-07-27T02:11:39.547Z,99.99
2017-07-27T02:12:39.217Z,99.99
2017-07-27T02:13:39.563Z,99.99
2017-07-27T02:14:39.203Z,99.99
2017-07-27T02:15:39.517Z,99.99
2017-07-27T02:16:39.529Z,99.99
2017-07-27T02:17:39.514Z,99.99
2017-07-27T02:18:39.503Z,99.99
2017-07-27T02:19:39.497Z,99.99
2017-07-27T02:20:39.511Z,99.99
2017-07-27T02:21:39.483Z,99.99
2017-07-27T02:22:39.156Z,99.99
2017-07-27T02:23:39.483Z,99.99
2017-07-27T02:24:39.467Z,99.99
2017-07-27T02:25:39.457Z,99.99
2017-07-27T02:26:39.471Z,99.99
2017-07-27T02:27:39.474Z,99.99
2017-07-27T02:28:39.440Z,99.99
2017-07-27T02:29:39.435Z,99.99
2017-07-27T02:30:39.447Z,99.99
2017-07-27T02:31:39.424Z,99.99
2017-07-27T02:32:39.419Z,99.99
2017-07-27T02:33:39.410Z,99.99
2017-07-27T02:34:39.091Z,99.99
2017-07-27T02:35:39.399Z,99.99
2017-07-27T02:36:39.395Z,99.99
2017-07-27T02:37:39.412Z,99.99
2017-07-27T02:38:39.381Z,99.99
2017-07-27T02:39:39.374Z,99.99
2017-07-27T02:40:39.370Z,99.99
2017-07-27T02:41:39.371Z,99.99
2017-07-27T02:42:39.359Z,99.99
2017-07-27T02:43:39.367Z,99.99
2017-07-27T02:44:39.046Z,99.99
2017-07-27T02:45:39.355Z,99.99
2017-07-27T02:46:39.340Z,99.99
2017-07-27T02:47:39.328Z,99.99
2017-07-27T02:48:39.337Z,99.99
2017-07-27T02:49:39.333Z,99.99
2017-07-27T02:50:39.346Z,99.99
2017-07-27T02:51:39.317Z,99.99
2017-07-27T02:52:39.297Z,99.99
2017-07-27T02:53:38.972Z,99.99
2017-07-27T02:54:39.285Z,99.99
2017-07-27T02:55:39.312Z,99.99
2017-07-27T02:56:38.958Z,99.99
2017-07-27T02:57:39.282Z,99.99
2017-07-27T02:58:39.285Z,99.99
2017-07-27T02:59:39.256Z,99.99
2017-07-27T03:00:39.251Z,99.99
2017-07-27T03:01:38.928Z,99.99
2017-07-27T03:02:39.251Z,99.99
2017-07-27T03:03:39.234Z,99.99
2017-07-27T03:04:39.227Z,99.99
2017-07-27T03:05:39.231Z,99.99
2017-07-27T03:06:39.215Z,99.99
2017-07-27T03:07:39.209Z,99.99
2017-07-27T03:08:39.223Z,99.99
2017-07-27T03:09:39.197Z,99.99
2017-07-27T03:10:39.192Z,99.99
2017-07-27T03:11:38.868Z,99.99
2017-07-27T03:12:39.181Z,99.99
2017-07-27T03:13:39.175Z,99.99
2017-07-27T03:14:39.178Z,99.99
2017-07-27T03:15:39.166Z,99.99
2017-07-27T03:16:38.836Z,99.99
2017-07-27T03:17:39.158Z,99.99
2017-07-27T03:18:39.152Z,99.99
2017-07-27T03:19:38.820Z,99.99
2017-07-27T03:20:39.156Z,99.99
2017-07-27T03:21:38.808Z,99.99
2017-07-27T03:22:38.802Z,99.99
2017-07-27T03:23:39.119Z,99.99
2017-07-27T03:24:39.111Z,99.99
2017-07-27T03:25:39.110Z,99.99
2017-07-27T03:26:39.100Z,99.99
2017-07-27T03:27:38.788Z,99.99
2017-07-27T03:28:39.097Z,99.99
2017-07-27T03:29:39.083Z,99.99
2017-07-27T03:30:39.113Z,99.99
2017-07-27T03:31:39.070Z,99.99
2017-07-27T03:32:39.062Z,99.99
2017-07-27T03:33:39.056Z,99.99
2017-07-27T03:34:39.049Z,99.99
2017-07-27T03:35:39.066Z,99.99
2017-07-27T03:36:38.718Z,99.99
2017-07-27T03:37:39.052Z,99.99
2017-07-27T03:38:39.024Z,99.99
2017-07-27T03:39:39.042Z,99.99
2017-07-27T03:40:39.015Z,99.99
2017-07-27T03:41:39.004Z,99.99
2017-07-27T03:42:39.000Z,99.99
2017-07-27T03:43:38.998Z,99.99
2017-07-27T03:44:38.986Z,99.99
2017-07-27T03:45:38.980Z,99.99
2017-07-27T03:46:38.983Z,99.99
2017-07-27T03:47:39.079Z,99.99
2017-07-27T03:48:38.973Z,99.99
2017-07-27T03:49:38.953Z,99.99
2017-07-27T03:50:38.947Z,99.99
2017-07-27T03:51:38.940Z,99.99
2017-07-27T03:52:38.953Z,99.99
2017-07-27T03:53:38.613Z,99.99
2017-07-27T03:54:38.928Z,99.99
2017-07-27T03:55:38.923Z,99.99
2017-07-27T03:56:38.589Z,99.99
2017-07-27T03:57:38.900Z,99.99
2017-07-27T03:58:38.895Z,99.99
2017-07-27T03:59:38.886Z,99.99
2017-07-27T04:00:38.885Z,99.99
2017-07-27T04:01:38.889Z,99.99
2017-07-27T04:02:39.019Z,99.99
2017-07-27T04:03:38.858Z,99.99
2017-07-27T04:04:38.866Z,99.99
2017-07-27T04:05:38.845Z,99.99
2017-07-27T04:06:38.563Z,99.99
2017-07-27T04:07:38.833Z,99.99
2017-07-27T04:08:38.826Z,99.99
2017-07-27T04:09:38.819Z,99.99
2017-07-27T04:10:38.813Z,99.99
2017-07-27T04:11:38.483Z,99.99
2017-07-27T04:12:38.797Z,99.99
2017-07-27T04:13:38.470Z,99.99
2017-07-27T04:14:38.466Z,99.99
2017-07-27T04:15:38.456Z,99.99
2017-07-27T04:16:38.770Z,99.99
2017-07-27T04:17:38.765Z,99.99
2017-07-27T04:18:38.766Z,99.99
2017-07-27T04:19:38.749Z,99.99
2017-07-27T04:20:38.758Z,99.99
2017-07-27T04:21:38.734Z,99.99
2017-07-27T04:22:38.412Z,99.99
2017-07-27T04:23:38.724Z,99.99
2017-07-27T04:24:38.715Z,99.99
2017-07-27T04:25:38.711Z,99.99
2017-07-27T04:26:38.698Z,99.99
2017-07-27T04:27:38.695Z,99.99
2017-07-27T04:28:38.689Z,99.99
2017-07-27T04:29:39.646Z,99.99
2017-07-27T04:30:38.683Z,99.99
2017-07-27T04:31:38.665Z,99.99
2017-07-27T04:32:38.659Z,99.99
2017-07-27T04:33:38.649Z,99.99
2017-07-27T04:34:38.654Z,99.99
2017-07-27T04:35:38.657Z,99.99
2017-07-27T04:36:38.630Z,99.99
2017-07-27T04:37:38.626Z,99.99
2017-07-27T04:38:38.616Z,99.99
2017-07-27T04:39:38.610Z,99.99
2017-07-27T04:40:38.602Z,99.99
2017-07-27T04:41:38.616Z,99.99
2017-07-27T04:42:38.593Z,99.99
2017-07-27T04:43:38.610Z,99.99
2017-07-27T04:44:38.596Z,99.99
2017-07-27T04:45:38.569Z,99.99
2017-07-27T04:46:38.242Z,99.99
2017-07-27T04:47:38.561Z,99.99
2017-07-27T04:48:38.227Z,99.99
2017-07-27T04:49:38.218Z,99.99
2017-07-27T04:50:38.212Z,99.99
2017-07-27T04:51:38.538Z,99.99
2017-07-27T04:52:38.198Z,99.99
2017-07-27T04:53:38.514Z,99.99
2017-07-27T04:54:38.507Z,99.99
2017-07-27T04:55:38.498Z,99.99
2017-07-27T04:56:38.176Z,99.99
2017-07-27T04:57:38.513Z,99.99
2017-07-27T04:58:38.500Z,99.99
2017-07-27T04:59:38.154Z,99.99
2017-07-27T05:00:38.466Z,99.99
2017-07-27T05:01:38.465Z,99.99
2017-07-27T05:02:38.141Z,99.99
2017-07-27T05:03:38.449Z,99.99
2017-07-27T05:04:38.460Z,99.99
2017-07-27T05:05:38.437Z,99.99
2017-07-27T05:06:38.438Z,99.99
2017-07-27T05:07:38.421Z,99.99
2017-07-27T05:08:38.436Z,99.99
2017-07-27T05:09:38.100Z,99.99
2017-07-27T05:10:38.423Z,99.99
2017-07-27T05:11:38.419Z,99.99
2017-07-27T05:12:38.072Z,99.99
2017-07-27T05:13:38.383Z,99.99
2017-07-27T05:14:38.057Z,99.99
2017-07-27T05:15:38.390Z,99.99
2017-07-27T05:16:38.391Z,99.99
2017-07-27T05:17:38.362Z,99.99
2017-07-27T05:18:38.032Z,99.99
2017-07-27T05:19:38.346Z,99.99
2017-07-27T05:20:38.345Z,99.99
2017-07-27T05:21:38.334Z,99.99
2017-07-27T05:22:38.346Z,99.99
2017-07-27T05:23:38.326Z,99.99
2017-07-27T05:24:38.316Z,99.99
2017-07-27T05:25:38.344Z,99.99
2017-07-27T05:26:38.305Z,99.99
2017-07-27T05:27:38.300Z,99.99
2017-07-27T05:28:38.013Z,99.99
2017-07-27T05:29:37.988Z,99.99
2017-07-27T05:30:38.303Z,99.99
2017-07-27T05:31:38.310Z,99.99
2017-07-27T05:32:38.270Z,99.99
2017-07-27T05:33:38.278Z,99.99
2017-07-27T05:34:38.256Z,99.99
2017-07-27T05:35:38.262Z,99.99
2017-07-27T05:36:38.247Z,99.99
2017-07-27T05:37:38.251Z,99.99
2017-07-27T05:38:37.913Z,99.99
2017-07-27T05:39:38.253Z,99.99
2017-07-27T05:40:38.229Z,99.99
2017-07-27T05:41:37.902Z,99.99
2017-07-27T05:42:38.233Z,99.99
2017-07-27T05:43:38.207Z,99.99
2017-07-27T05:44:37.880Z,99.99
2017-07-27T05:45:38.196Z,99.99
2017-07-27T05:46:37.886Z,99.99
2017-07-27T05:47:38.185Z,99.99
2017-07-27T05:48:38.197Z,99.99
2017-07-27T05:49:38.173Z,99.99
2017-07-27T05:50:38.167Z,99.99
2017-07-27T05:51:37.842Z,99.99
2017-07-27T05:52:38.157Z,99.99
2017-07-27T05:53:38.353Z,99.99
2017-07-27T05:54:38.149Z,99.99
2017-07-27T05:55:37.823Z,99.99
2017-07-27T05:56:37.820Z,99.99
2017-07-27T05:57:38.161Z,99.99
2017-07-27T05:58:37.813Z,99.99
2017-07-27T05:59:38.126Z,99.99
2017-07-27T06:00:38.145Z,99.99
2017-07-27T06:01:38.116Z,99.99
2017-07-27T06:02:38.110Z,99.99
2017-07-27T06:03:37.786Z,99.99
2017-07-27T06:04:38.106Z,99.99
2017-07-27T06:05:38.100Z,99.99
2017-07-27T06:06:38.095Z,99.99
2017-07-27T06:07:38.094Z,99.99
2017-07-27T06:08:38.086Z,99.99
2017-07-27T06:09:38.083Z,99.99
2017-07-27T06:10:38.094Z,99.99
2017-07-27T06:11:37.766Z,99.99
2017-07-27T06:12:38.070Z,99.99
2017-07-27T06:13:38.069Z,99.99
2017-07-27T06:14:38.085Z,99.99
2017-07-27T06:15:37.738Z,99.99
2017-07-27T06:16:37.733Z,99.99
2017-07-27T06:17:38.075Z,99.99
2017-07-27T06:18:38.049Z,99.99
2017-07-27T06:19:38.043Z,99.99
2017-07-27T06:20:38.041Z,99.99
2017-07-27T06:21:38.075Z,99.99
2017-07-27T06:22:38.044Z,99.99
2017-07-27T06:23:38.033Z,99.99
2017-07-27T06:24:38.038Z,99.99
2017-07-27T06:25:38.021Z,99.99
2017-07-27T06:26:38.016Z,99.99
2017-07-27T06:27:38.015Z,99.99
2017-07-27T06:28:38.030Z,99.99
2017-07-27T06:29:38.010Z,99.99
2017-07-27T06:30:38.006Z,99.99
2017-07-27T06:31:38.026Z,99.99
2017-07-27T06:32:37.697Z,99.99
2017-07-27T06:33:38.014Z,99.99
2017-07-27T06:34:38.003Z,99.99
2017-07-27T06:35:37.995Z,99.99
2017-07-27T06:36:37.990Z,99.99
2017-07-27T06:37:37.989Z,99.99
2017-07-27T06:38:37.986Z,99.99
2017-07-27T06:39:37.990Z,99.99
2017-07-27T06:40:37.983Z,99.99
2017-07-27T06:41:38.018Z,99.99
2017-07-27T06:42:37.676Z,99.99
2017-07-27T06:43:38.003Z,99.99
2017-07-27T06:44:37.992Z,99.99
2017-07-27T06:45:37.975Z,99.99
2017-07-27T06:46:37.972Z,99.99
2017-07-27T06:47:37.969Z,99.99
2017-07-27T06:48:37.983Z,99.99
2017-07-27T06:49:37.639Z,99.99
2017-07-27T06:50:37.960Z,99.99
2017-07-27T06:51:37.968Z,99.99
2017-07-27T06:52:37.961Z,91.8
2017-07-27T06:53:37.653Z,90.98
2017-07-27T06:54:37.964Z,88.81
2017-07-27T06:55:37.649Z,84.43
2017-07-27T06:56:37.945Z,84.47
2017-07-27T06:57:37.623Z,81.68
2017-07-27T06:58:37.962Z,81.77
2017-07-27T06:59:37.947Z,81.87
2017-07-27T07:00:37.630Z,80.85
2017-07-27T07:01:37.617Z,78.13
2017-07-27T07:02:37.938Z,74.83
2017-07-27T07:03:37.618Z,74.1
2017-07-27T07:04:37.616Z,74.68
2017-07-27T07:05:37.937Z,75.26
2017-07-27T07:06:37.940Z,70.29
2017-07-27T07:07:37.942Z,72.28
2017-07-27T07:08:37.946Z,73.11
2017-07-27T07:09:37.943Z,73.69
2017-07-27T07:10:37.952Z,71.09
2017-07-27T07:11:37.619Z,73.18
2017-07-27T07:12:37.975Z,73.66
2017-07-27T07:13:37.950Z,72.37
2017-07-27T07:14:37.619Z,75.07
2017-07-27T07:15:37.950Z,78.77
2017-07-27T07:16:37.945Z,76.01
2017-07-27T07:17:37.964Z,74.66
2017-07-27T07:18:37.944Z,74.95
2017-07-27T07:19:38.150Z,74.82
2017-07-27T07:20:37.630Z,74.91
2017-07-27T07:21:37.628Z,75.49
2017-07-27T07:22:37.947Z,77.09
2017-07-27T07:23:37.964Z,78.54
2017-07-27T07:24:37.649Z,77.58
2017-07-27T07:25:37.632Z,74.01
2017-07-27T07:26:37.977Z,74.74
2017-07-27T07:27:37.955Z,76.76
2017-07-27T07:28:37.962Z,78.75
2017-07-27T07:29:37.977Z,79.28
2017-07-27T07:30:37.655Z,79.25
2017-07-27T07:31:37.978Z,80.94
2017-07-27T07:32:37.635Z,83.44
2017-07-27T07:33:37.643Z,84.17
2017-07-27T07:34:37.957Z,85.89
2017-07-27T07:35:37.958Z,86.18
2017-07-27T07:36:37.954Z,87.49
2017-07-27T07:37:37.654Z,88.06
2017-07-27T07:38:37.957Z,88.35
2017-07-27T07:39:37.631Z,87.49
2017-07-27T07:40:37.965Z,89.5
2017-07-27T07:41:37.950Z,89.4
2017-07-27T07:42:37.949Z,91.71
2017-07-27T07:43:37.646Z,89.69
2017-07-27T07:44:37.947Z,89.4
2017-07-27T07:45:37.948Z,90.6
2017-07-27T07:46:37.956Z,90.89
2017-07-27T07:47:37.963Z,91.61
2017-07-27T07:48:37.950Z,92
2017-07-27T07:49:37.944Z,91.18
2017-07-27T07:50:37.953Z,90.94
2017-07-27T07:51:37.944Z,91.61
2017-07-27T07:52:37.952Z,92.57
2017-07-27T07:53:37.963Z,92.19
2017-07-27T07:54:37.951Z,92.67
2017-07-27T07:55:37.946Z,94.11
2017-07-27T07:56:37.621Z,95.21
2017-07-27T07:57:37.951Z,91.85
2017-07-27T07:58:37.934Z,91.08
2017-07-27T07:59:37.940Z,90.41
2017-07-27T08:00:37.950Z,91.75
2017-07-27T08:01:37.614Z,90.84
2017-07-27T08:02:37.941Z,90.45
2017-07-27T08:03:37.932Z,90.31
2017-07-27T08:04:37.614Z,91.28
2017-07-27T08:05:37.613Z,89.16
2017-07-27T08:06:37.930Z,91.85
2017-07-27T08:07:37.940Z,91.32
2017-07-27T08:08:37.608Z,89.74
2017-07-27T08:09:37.607Z,88.59
2017-07-27T08:10:37.926Z,90.7
2017-07-27T08:11:37.609Z,92.81
2017-07-27T08:12:37.602Z,93.96
2017-07-27T08:13:37.924Z,94.06
2017-07-27T08:14:37.927Z,93.29
2017-07-27T08:15:37.938Z,91.08
2017-07-27T08:16:37.607Z,92.24
2017-07-27T08:17:37.923Z,91.66
2017-07-27T08:18:37.919Z,91.85
2017-07-27T08:19:37.918Z,91.28
2017-07-27T08:20:37.598Z,93.77
2017-07-27T08:21:37.917Z,91.95
2017-07-27T08:22:37.920Z,89.07
2017-07-27T08:23:37.915Z,92.24
2017-07-27T08:24:37.595Z,93.58
2017-07-27T08:25:37.914Z,92.33
2017-07-27T08:26:37.914Z,91.85
2017-07-27T08:27:37.928Z,90.6
2017-07-27T08:28:37.935Z,90.89
2017-07-27T08:29:37.911Z,93.87
2017-07-27T08:30:37.915Z,94.31
2017-07-27T08:31:37.589Z,94.4
2017-07-27T08:32:37.909Z,94.11
2017-07-27T08:33:37.908Z,95.07
2017-07-27T08:34:37.906Z,96.22
2017-07-27T08:35:37.906Z,93.63
2017-07-27T08:36:37.903Z,95.94
2017-07-27T08:37:37.584Z,96.22
2017-07-27T08:38:37.902Z,96.99
2017-07-27T08:39:37.917Z,96.8
2017-07-27T08:40:37.916Z,96.56
2017-07-27T08:41:37.901Z,96.75
2017-07-27T08:42:37.896Z,96.08
2017-07-27T08:43:37.896Z,97.04
2017-07-27T08:44:37.897Z,97.33
2017-07-27T08:45:37.574Z,98.38
2017-07-27T08:46:37.921Z,98.96
2017-07-27T08:47:37.571Z,99.15
2017-07-27T08:48:37.584Z,99.99
2017-07-27T08:49:37.887Z,99.99
2017-07-27T08:50:37.569Z,99.99
2017-07-27T08:51:37.891Z,99.99
2017-07-27T08:52:37.563Z,99.99
2017-07-27T08:53:37.560Z,99.99
2017-07-27T08:54:37.563Z,99.54
2017-07-27T08:55:37.878Z,99.58
2017-07-27T08:56:37.556Z,99.99
2017-07-27T08:57:37.572Z,99.99
2017-07-27T08:58:37.554Z,99.99
2017-07-27T08:59:37.889Z,99.99
2017-07-27T09:00:37.550Z,99.99
2017-07-27T09:01:37.869Z,99.99
2017-07-27T09:02:37.871Z,99.99
2017-07-27T09:03:37.865Z,99.99
2017-07-27T09:04:37.884Z,99.99
2017-07-27T09:05:37.864Z,99.99
2017-07-27T09:06:37.864Z,99.99
2017-07-27T09:07:37.875Z,99.99
2017-07-27T09:08:37.856Z,99.99
2017-07-27T09:09:37.854Z,99.99
2017-07-27T09:10:37.851Z,99.99
2017-07-27T09:11:37.847Z,99.99
2017-07-27T09:12:37.545Z,99.99
2017-07-27T09:13:37.867Z,99.99
2017-07-27T09:14:37.841Z,99.99
2017-07-27T09:15:37.518Z,99.99
2017-07-27T09:16:37.834Z,99.99
2017-07-27T09:17:37.834Z,99.99
2017-07-27T09:18:37.512Z,99.99
2017-07-27T09:19:37.508Z,99.99
2017-07-27T09:20:37.847Z,99.99
2017-07-27T09:21:37.834Z,99.99
2017-07-27T09:22:37.823Z,99.99
2017-07-27T09:23:37.827Z,99.99
2017-07-27T09:24:37.819Z,99.99
2017-07-27T09:25:37.833Z,99.99
2017-07-27T09:26:37.489Z,99.99
2017-07-27T09:27:37.811Z,99.99
2017-07-27T09:28:37.804Z,99.99
2017-07-27T09:29:37.811Z,99.99
2017-07-27T09:30:37.482Z,99.99
2017-07-27T09:31:37.806Z,99.99
2017-07-27T09:32:37.797Z,99.99
2017-07-27T09:33:37.480Z,99.99
2017-07-27T09:34:37.483Z,99.99
2017-07-27T09:35:37.795Z,99.99
2017-07-27T09:36:37.803Z,99.99
2017-07-27T09:37:37.783Z,99.99
2017-07-27T09:38:37.783Z,99.99
2017-07-27T09:39:37.812Z,99.99
2017-07-27T09:40:37.456Z,99.99
2017-07-27T09:41:37.451Z,99.99
2017-07-27T09:42:37.769Z,99.99
2017-07-27T09:43:37.770Z,99.99
2017-07-27T09:44:37.783Z,99.99
2017-07-27T09:45:37.776Z,99.99
2017-07-27T09:46:37.443Z,99.99
2017-07-27T09:47:37.760Z,99.99
2017-07-27T09:48:37.782Z,99.99
2017-07-27T09:49:37.441Z,99.99
2017-07-27T09:50:37.432Z,99.99
2017-07-27T09:51:37.746Z,99.99
2017-07-27T09:52:37.447Z,99.99
2017-07-27T09:53:37.743Z,99.99
2017-07-27T09:54:37.795Z,99.99
2017-07-27T09:55:37.735Z,99.99
2017-07-27T09:56:37.734Z,99.99
2017-07-27T09:57:37.739Z,99.99
2017-07-27T09:58:37.730Z,99.99
2017-07-27T09:59:37.746Z,99.99
2017-07-27T10:00:37.724Z,99.99
2017-07-27T10:01:37.402Z,99.99
2017-07-27T10:02:37.397Z,99.99
2017-07-27T10:03:37.715Z,99.99
2017-07-27T10:04:37.720Z,99.99
2017-07-27T10:05:37.389Z,99.99
2017-07-27T10:06:37.385Z,99.99
2017-07-27T10:07:37.395Z,99.99
2017-07-27T10:08:37.701Z,99.99
2017-07-27T10:09:37.406Z,99.99
2017-07-27T10:10:37.697Z,99.99
2017-07-27T10:11:37.392Z,99.99
2017-07-27T10:12:37.690Z,99.99
2017-07-27T10:13:37.365Z,99.99
2017-07-27T10:14:37.683Z,99.99
2017-07-27T10:15:37.362Z,99.99
2017-07-27T10:16:37.356Z,99.99
2017-07-27T10:17:37.676Z,99.99
2017-07-27T10:18:37.352Z,99.99
2017-07-27T10:19:37.669Z,99.99
2017-07-27T10:20:37.676Z,99.99
2017-07-27T10:21:37.666Z,99.99
2017-07-27T10:22:37.663Z,99.99
2017-07-27T10:23:37.673Z,99.99
2017-07-27T10:24:37.656Z,99.99
2017-07-27T10:25:37.650Z,99.99
2017-07-27T10:26:37.649Z,99.99
2017-07-27T10:27:37.662Z,99.99
2017-07-27T10:28:37.641Z,99.99
2017-07-27T10:29:37.320Z,99.99
2017-07-27T10:30:37.639Z,99.99
2017-07-27T10:31:37.643Z,99.99
2017-07-27T10:32:37.631Z,99.99
2017-07-27T10:33:37.647Z,99.99
2017-07-27T10:34:37.642Z,99.99
2017-07-27T10:35:37.636Z,99.99
2017-07-27T10:36:37.617Z,99.99
2017-07-27T10:37:37.623Z,99.99
2017-07-27T10:38:37.631Z,99.99
2017-07-27T10:39:37.612Z,99.99
2017-07-27T10:40:37.609Z,99.99
2017-07-27T10:41:37.293Z,99.99
2017-07-27T10:42:37.633Z,99.99
2017-07-27T10:43:37.620Z,99.99
2017-07-27T10:44:37.276Z,99.99
2017-07-27T10:45:37.594Z,99.99
2017-07-27T10:46:37.589Z,99.99
2017-07-27T10:47:37.618Z,99.99
2017-07-27T10:48:37.267Z,99.99
2017-07-27T10:49:37.260Z,99.99
2017-07-27T10:50:37.606Z,99.99
2017-07-27T10:51:37.580Z,99.99
2017-07-27T10:52:37.260Z,99.99
2017-07-27T10:53:37.254Z,99.99
2017-07-27T10:54:37.573Z,99.99
2017-07-27T10:55:37.264Z,99.99
2017-07-27T10:56:37.253Z,99.99
2017-07-27T10:57:37.566Z,99.99
2017-07-27T10:58:37.582Z,99.99
2017-07-27T10:59:37.242Z,99.99
2017-07-27T11:00:37.240Z,99.99
2017-07-27T11:01:37.569Z,99.99
2017-07-27T11:02:37.565Z,99.99
2017-07-27T11:03:37.558Z,99.99
2017-07-27T11:04:37.548Z,99.99
2017-07-27T11:05:37.563Z,99.99
2017-07-27T11:06:37.545Z,99.99
2017-07-27T11:07:37.557Z,99.99
2017-07-27T11:08:37.222Z,99.99
2017-07-27T11:09:37.218Z,99.99
2017-07-27T11:10:37.553Z,99.99
2017-07-27T11:11:37.533Z,99.99
2017-07-27T11:12:37.237Z,99.99
2017-07-27T11:13:37.412Z,99.99
2017-07-27T11:14:37.539Z,99.99
2017-07-27T11:15:37.525Z,99.99
2017-07-27T11:16:37.535Z,99.99
2017-07-27T11:17:37.201Z,99.99
2017-07-27T11:18:37.518Z,99.99
2017-07-27T11:19:37.515Z,99.99
2017-07-27T11:20:37.522Z,99.99
2017-07-27T11:21:37.530Z,99.99
2017-07-27T11:22:37.529Z,99.99
2017-07-27T11:23:37.504Z,99.99
2017-07-27T11:24:37.521Z,99.99
2017-07-27T11:25:37.508Z,99.99
2017-07-27T11:26:37.190Z,99.99
2017-07-27T11:27:37.498Z,99.99
2017-07-27T11:28:37.175Z,99.99
2017-07-27T11:29:37.493Z,99.99
2017-07-27T11:30:37.489Z,99.99
2017-07-27T11:31:37.524Z,99.99
2017-07-27T11:32:37.164Z,99.99
2017-07-27T11:33:37.485Z,99.99
2017-07-27T11:34:37.157Z,99.99
2017-07-27T11:35:37.158Z,99.99
2017-07-27T11:36:37.153Z,99.99
2017-07-27T11:37:37.152Z,99.99
2017-07-27T11:38:37.485Z,99.99
2017-07-27T11:39:37.470Z,99.99
2017-07-27T11:40:37.146Z,99.99
2017-07-27T11:41:37.466Z,99.99
2017-07-27T11:42:37.461Z,99.99
2017-07-27T11:43:37.479Z,99.99
2017-07-27T11:44:37.471Z,99.99
2017-07-27T11:45:37.456Z,99.99
2017-07-27T11:46:37.451Z,99.99
2017-07-27T11:47:37.128Z,99.99
2017-07-27T11:48:37.443Z,99.99
2017-07-27T11:49:37.450Z,99.99
2017-07-27T11:50:37.441Z,99.99
2017-07-27T11:51:37.436Z,99.99
2017-07-27T11:52:37.432Z,99.99
2017-07-27T11:53:37.432Z,99.99
2017-07-27T11:54:37.430Z,99.99
2017-07-27T11:55:37.427Z,99.99
2017-07-27T11:56:37.423Z,99.99
2017-07-27T11:57:37.430Z,99.99
2017-07-27T11:58:37.419Z,99.99
2017-07-27T11:59:37.419Z,99.99
2017-07-27T12:00:37.095Z,99.99
2017-07-27T12:01:37.410Z,99.99
2017-07-27T12:02:37.406Z,99.99
2017-07-27T12:03:37.427Z,99.99
2017-07-27T12:04:37.403Z,99.99
2017-07-27T12:05:37.398Z,99.99
2017-07-27T12:06:37.409Z,99.99
2017-07-27T12:07:37.406Z,99.99
2017-07-27T12:08:37.389Z,99.99
2017-07-27T12:09:37.388Z,99.99
2017-07-27T12:10:37.078Z,99.99
2017-07-27T12:11:37.391Z,99.99
2017-07-27T12:12:37.394Z,99.99
2017-07-27T12:13:37.384Z,99.99
2017-07-27T12:14:37.374Z,99.99
2017-07-27T12:15:37.367Z,99.99
2017-07-27T12:16:37.406Z,99.99
2017-07-27T12:17:37.364Z,99.99
2017-07-27T12:18:37.384Z,99.99
2017-07-27T12:19:37.356Z,99.99
2017-07-27T12:20:37.035Z,99.99
2017-07-27T12:21:37.348Z,99.99
2017-07-27T12:22:37.347Z,99.99
2017-07-27T12:23:37.345Z,99.99
2017-07-27T12:24:37.020Z,99.99
2017-07-27T12:25:37.340Z,99.99
2017-07-27T12:26:37.014Z,99.99
2017-07-27T12:27:37.339Z,99.99
2017-07-27T12:28:37.332Z,99.99
2017-07-27T12:29:37.008Z,99.99
2017-07-27T12:30:37.324Z,99.99
2017-07-27T12:31:37.326Z,99.99
2017-07-27T12:32:37.001Z,99.99
2017-07-27T12:33:37.317Z,99.99
2017-07-27T12:34:37.326Z,99.99
2017-07-27T12:35:37.320Z,99.99
2017-07-27T12:36:37.322Z,99.99
2017-07-27T12:37:37.326Z,99.99
2017-07-27T12:38:37.328Z,99.99
2017-07-27T12:39:37.302Z,99.99
2017-07-27T12:40:37.304Z,99.99
2017-07-27T12:41:37.299Z,99.99
2017-07-27T12:42:37.300Z,99.99
2017-07-27T12:43:37.321Z,99.99
2017-07-27T12:44:37.294Z,99.99
2017-07-27T12:45:37.290Z,99.99
2017-07-27T12:46:37.295Z,99.99
2017-07-27T12:47:37.290Z,99.99
2017-07-27T12:48:37.289Z,99.99
2017-07-27T12:49:36.975Z,99.99
2017-07-27T12:50:37.284Z,99.99
2017-07-27T12:51:37.283Z,99.99
2017-07-27T12:52:37.278Z,99.99
2017-07-27T12:53:37.278Z,99.99